< < Back
Terminal Aerodrome Forecast


Current Version              Previous Versions:   1  2  3  4  5  6  7  8  9  

Terminal Aerodrome Forecast

817
FTUS42 KCHS 301100
TAFSAV
TAF
KSAV 301125Z 3012/0112 01008KT P6SM OVC005
     FM301500 02009KT P6SM SCT012 BKN025
     FM301800 04008KT P6SM SCT035
     FM010000 VRB03KT P6SM SKC
     FM010800 00000KT 4SM BR SCT003=

Latest METAR

028
SAUS80 KWBC 301200 RRA
MTRSAV
METAR KSAV 301153Z 02007KT 10SM OVC005 20/18 A2990 RMK AO2 SLP124 70034
T02000178 10206 20200 53013


USA.gov is the U.S. government's official web portal to all federal, state and local government web resources and services.